createdAt,value
2023-05-12T00:00:36.757Z,176.64
2023-05-12T00:01:36.786Z,177.16
2023-05-12T00:02:36.883Z,176.46
2023-05-12T00:03:37.086Z,176.76
2023-05-12T00:04:36.942Z,178.40
2023-05-12T00:05:36.952Z,178.31
2023-05-12T00:06:36.979Z,175.04
2023-05-12T00:07:37.004Z,177.16
2023-05-12T00:08:37.065Z,177.18
2023-05-12T00:09:37.117Z,178.04
2023-05-12T00:10:37.179Z,176.57
2023-05-12T00:11:37.260Z,175.11
2023-05-12T00:12:37.297Z,175.89
2023-05-12T00:13:37.351Z,175.60
2023-05-12T00:14:37.376Z,177.69
2023-05-12T00:15:37.430Z,176.51
2023-05-12T00:16:37.610Z,173.56
2023-05-12T00:17:37.653Z,174.01
2023-05-12T00:18:37.719Z,174.44
2023-05-12T00:19:37.622Z,176.01
2023-05-12T00:20:37.666Z,174.74
2023-05-12T00:21:37.701Z,174.54
2023-05-12T00:22:37.768Z,176.98
2023-05-12T00:23:37.819Z,174.95
2023-05-12T00:24:37.849Z,175.60
2023-05-12T00:25:37.926Z,175.78
2023-05-12T00:26:37.945Z,175.38
2023-05-12T00:27:38.009Z,176.23
2023-05-12T00:28:38.027Z,174.74
2023-05-12T00:29:38.109Z,176.92
2023-05-12T00:30:38.141Z,174.71
2023-05-12T00:31:38.223Z,175.07
2023-05-12T00:32:38.299Z,175.28
2023-05-12T00:33:38.330Z,174.83
2023-05-12T00:34:38.385Z,173.70
2023-05-12T00:35:38.464Z,176.70
2023-05-12T00:36:38.498Z,175.07
2023-05-12T00:37:38.591Z,174.06
2023-05-12T00:38:38.625Z,175.39
2023-05-12T00:39:38.694Z,173.91
2023-05-12T00:40:38.768Z,173.87
2023-05-12T00:41:38.793Z,173.14
2023-05-12T00:42:38.839Z,172.79
2023-05-12T00:43:38.890Z,174.41
2023-05-12T00:44:38.942Z,172.68
2023-05-12T00:45:39.039Z,175.89
2023-05-12T00:46:39.052Z,174.11
2023-05-12T00:47:39.142Z,174.22
2023-05-12T00:48:39.175Z,173.41
2023-05-12T00:49:39.243Z,173.27
2023-05-12T00:50:39.314Z,173.23
2023-05-12T00:51:39.368Z,174.93
2023-05-12T00:52:39.437Z,174.80
2023-05-12T00:53:49.304Z,173.72
2023-05-12T00:54:40.497Z,173.88
2023-05-12T00:55:39.525Z,173.83
2023-05-12T00:56:39.589Z,173.83
2023-05-12T00:57:39.498Z,174.60
2023-05-12T00:58:39.460Z,173.72
2023-05-12T00:59:39.495Z,172.94
2023-05-12T01:00:39.466Z,173.46
2023-05-12T01:01:39.544Z,171.35
2023-05-12T01:02:39.594Z,172.45
2023-05-12T01:03:39.546Z,174.99
2023-05-12T01:04:39.555Z,172.92
2023-05-12T01:05:39.657Z,171.01
2023-05-12T01:06:39.626Z,172.78
2023-05-12T01:07:39.680Z,171.61
2023-05-12T01:08:39.729Z,171.74
2023-05-12T01:09:39.783Z,173.46
2023-05-12T01:10:39.857Z,170.96
2023-05-12T01:11:39.866Z,172.80
2023-05-12T01:12:39.925Z,174.03
2023-05-12T01:13:39.975Z,170.67
2023-05-12T01:14:39.999Z,173.62
2023-05-12T01:15:40.078Z,172.76
2023-05-12T01:16:40.144Z,171.23
2023-05-12T01:17:40.324Z,172.13
2023-05-12T01:18:40.366Z,171.67
2023-05-12T01:19:40.313Z,170.97
2023-05-12T01:20:40.383Z,170.46
2023-05-12T01:21:40.412Z,172.24
2023-05-12T01:22:40.465Z,172.38
2023-05-12T01:23:40.506Z,171.51
2023-05-12T01:24:40.571Z,171.54
2023-05-12T01:25:40.646Z,170.99
2023-05-12T01:26:40.660Z,169.22
2023-05-12T01:27:40.679Z,169.64
2023-05-12T01:28:40.701Z,171.05
2023-05-12T01:29:40.737Z,171.42
2023-05-12T01:30:40.817Z,169.46
2023-05-12T01:31:41.083Z,171.67
2023-05-12T01:32:40.945Z,170.66
2023-05-12T01:33:40.956Z,171.94
2023-05-12T01:34:41.020Z,169.24
2023-05-12T01:35:41.086Z,169.83
2023-05-12T01:36:41.202Z,168.79
2023-05-12T01:37:41.163Z,169.91
2023-05-12T01:38:41.197Z,170.62
2023-05-12T01:39:41.213Z,171.15
2023-05-12T01:40:41.269Z,168.80
2023-05-12T01:41:41.340Z,170.34
2023-05-12T01:42:41.376Z,168.98
2023-05-12T01:43:41.406Z,169.22
2023-05-12T01:44:41.406Z,171.74
2023-05-12T01:45:41.469Z,171.09
2023-05-12T01:46:41.601Z,167.93
2023-05-12T01:47:41.569Z,169.45
2023-05-12T01:48:41.609Z,169.97
2023-05-12T01:49:41.640Z,168.87
2023-05-12T01:50:41.657Z,171.08
2023-05-12T01:51:41.733Z,168.73
2023-05-12T01:52:41.765Z,169.74
2023-05-12T01:53:41.824Z,169.13
2023-05-12T01:54:41.856Z,168.07
2023-05-12T01:55:41.905Z,167.61
2023-05-12T01:56:41.930Z,167.73
2023-05-12T01:57:41.974Z,167.32
2023-05-12T01:58:42.028Z,169.50
2023-05-12T01:59:42.028Z,168.86
2023-05-12T02:00:42.084Z,166.97
2023-05-12T02:01:42.178Z,168.82
2023-05-12T02:02:43.206Z,168.98
2023-05-12T02:03:42.190Z,167.62
2023-05-12T02:04:42.151Z,167.52
2023-05-12T02:05:42.151Z,168.59
2023-05-12T02:06:42.201Z,168.56
2023-05-12T02:07:42.224Z,168.34
2023-05-12T02:08:42.299Z,168.39
2023-05-12T02:09:42.319Z,166.25
2023-05-12T02:10:42.351Z,168.76
2023-05-12T02:11:42.432Z,167.74
2023-05-12T02:12:42.435Z,167.58
2023-05-12T02:13:42.460Z,167.57
2023-05-12T02:14:42.518Z,168.90
2023-05-12T02:15:42.600Z,166.28
2023-05-12T02:16:42.794Z,166.61
2023-05-12T02:17:42.687Z,167.25
2023-05-12T02:18:42.675Z,166.44
2023-05-12T02:19:42.620Z,165.67
2023-05-12T02:20:42.623Z,165.52
2023-05-12T02:21:42.677Z,166.82
2023-05-12T02:22:42.628Z,168.43
2023-05-12T02:23:42.641Z,169.55
2023-05-12T02:24:42.654Z,165.99
2023-05-12T02:25:42.638Z,166.15
2023-05-12T02:26:42.656Z,164.49
2023-05-12T02:27:42.660Z,164.22
2023-05-12T02:28:42.668Z,165.68
2023-05-12T02:29:42.662Z,168.52
2023-05-12T02:30:42.702Z,167.14
2023-05-12T02:31:42.738Z,165.94
2023-05-12T02:32:42.816Z,165.60
2023-05-12T02:33:42.785Z,167.59
2023-05-12T02:34:42.786Z,166.82
2023-05-12T02:35:42.816Z,164.84
2023-05-12T02:36:42.898Z,165.57
2023-05-12T02:37:42.868Z,164.61
2023-05-12T02:38:42.898Z,168.38
2023-05-12T02:39:42.910Z,166.73
2023-05-12T02:40:42.914Z,165.12
2023-05-12T02:41:42.927Z,167.10
2023-05-12T02:42:42.979Z,164.74
2023-05-12T02:43:42.995Z,166.65
2023-05-12T02:44:43.035Z,165.58
2023-05-12T02:45:43.060Z,164.88
2023-05-12T02:46:43.059Z,167.21
2023-05-12T02:47:43.108Z,164.90
2023-05-12T02:48:43.117Z,163.94
2023-05-12T02:49:43.185Z,165.16
2023-05-12T02:50:43.205Z,162.73
2023-05-12T02:51:43.156Z,166.20
2023-05-12T02:52:43.182Z,164.37
2023-05-12T02:53:43.193Z,163.50
2023-05-12T02:54:43.229Z,162.94
2023-05-12T02:55:43.259Z,164.72
2023-05-12T02:56:43.257Z,162.53
2023-05-12T02:57:43.282Z,164.65
2023-05-12T02:58:43.289Z,162.53
2023-05-12T02:59:43.292Z,164.77
2023-05-12T03:00:43.295Z,164.34
2023-05-12T03:01:43.388Z,164.21
2023-05-12T03:02:43.438Z,165.32
2023-05-12T03:03:43.494Z,162.26
2023-05-12T03:04:43.340Z,163.64
2023-05-12T03:05:43.332Z,164.71
2023-05-12T03:06:43.374Z,166.15
2023-05-12T03:07:43.351Z,163.79
2023-05-12T03:08:43.340Z,162.18
2023-05-12T03:09:43.351Z,164.02
2023-05-12T03:10:43.353Z,163.20
2023-05-12T03:11:43.346Z,163.69
2023-05-12T03:12:43.358Z,165.12
2023-05-12T03:13:43.322Z,164.07
2023-05-12T03:14:43.327Z,164.59
2023-05-12T03:15:43.317Z,162.67
2023-05-12T03:16:43.369Z,162.60
2023-05-12T03:17:43.389Z,163.56
2023-05-12T03:18:43.356Z,163.12
2023-05-12T03:19:43.335Z,162.19
2023-05-12T03:20:43.349Z,161.47
2023-05-12T03:21:43.366Z,162.08
2023-05-12T03:22:43.344Z,163.92
2023-05-12T03:23:43.336Z,162.24
2023-05-12T03:24:43.330Z,162.34
2023-05-12T03:25:43.297Z,160.29
2023-05-12T03:26:43.308Z,162.55
2023-05-12T03:27:43.308Z,162.64
2023-05-12T03:28:43.347Z,161.94
2023-05-12T03:29:43.297Z,163.84
2023-05-12T03:30:43.304Z,160.10
2023-05-12T03:31:43.388Z,161.84
2023-05-12T03:32:43.335Z,163.13
2023-05-12T03:33:43.324Z,160.33
2023-05-12T03:34:43.309Z,161.96
2023-05-12T03:35:43.307Z,163.19
2023-05-12T03:36:43.307Z,160.93
2023-05-12T03:37:43.314Z,160.51
2023-05-12T03:38:43.320Z,159.90
2023-05-12T03:39:43.321Z,162.61
2023-05-12T03:40:43.305Z,161.32
2023-05-12T03:41:43.310Z,161.83
2023-05-12T03:42:43.295Z,161.98
2023-05-12T03:43:43.289Z,161.43
2023-05-12T03:44:43.298Z,161.53
2023-05-12T03:45:43.327Z,160.75
2023-05-12T03:46:43.334Z,161.80
2023-05-12T03:47:43.350Z,162.32
2023-05-12T03:48:43.310Z,160.83
2023-05-12T03:49:43.292Z,160.99
2023-05-12T03:50:43.308Z,158.20
2023-05-12T03:51:43.273Z,160.96
2023-05-12T03:52:43.259Z,160.69
2023-05-12T03:53:43.264Z,160.50
2023-05-12T03:54:43.253Z,160.18
2023-05-12T03:55:43.287Z,160.56
2023-05-12T03:56:43.271Z,160.67
2023-05-12T03:57:43.259Z,161.09
2023-05-12T03:58:43.243Z,159.53
2023-05-12T03:59:43.243Z,160.06
2023-05-12T04:00:44.198Z,160.68
2023-05-12T04:01:43.288Z,160.01
2023-05-12T04:02:43.364Z,161.48
2023-05-12T04:03:43.339Z,161.35
2023-05-12T04:04:43.249Z,159.48
2023-05-12T04:05:43.242Z,160.38
2023-05-12T04:06:43.251Z,159.59
2023-05-12T04:07:43.244Z,158.86
2023-05-12T04:08:43.242Z,157.92
2023-05-12T04:09:43.242Z,160.05
2023-05-12T04:10:43.224Z,159.93
2023-05-12T04:11:43.228Z,159.38
2023-05-12T04:12:43.226Z,160.17
2023-05-12T04:13:43.212Z,158.01
2023-05-12T04:14:43.626Z,158.62
2023-05-12T04:15:43.234Z,158.41
2023-05-12T04:16:43.255Z,159.75
2023-05-12T04:17:43.294Z,157.73
2023-05-12T04:18:43.249Z,159.09
2023-05-12T04:19:43.213Z,157.38
2023-05-12T04:20:43.206Z,158.74
2023-05-12T04:21:43.217Z,157.42
2023-05-12T04:22:43.201Z,159.73
2023-05-12T04:23:43.205Z,159.55
2023-05-12T04:24:43.216Z,157.51
2023-05-12T04:25:43.223Z,158.23
2023-05-12T04:26:43.212Z,157.71
2023-05-12T04:27:43.206Z,157.89
2023-05-12T04:28:43.213Z,156.61
2023-05-12T04:29:43.203Z,160.34
2023-05-12T04:30:43.198Z,156.10
2023-05-12T04:31:43.238Z,161.54
2023-05-12T04:32:43.290Z,158.57
2023-05-12T04:33:43.195Z,156.60
2023-05-12T04:34:43.255Z,157.87
2023-05-12T04:35:43.204Z,159.24
2023-05-12T04:36:43.236Z,157.72
2023-05-12T04:37:43.204Z,157.16
2023-05-12T04:38:43.210Z,158.49
2023-05-12T04:39:43.220Z,158.83
2023-05-12T04:40:43.209Z,157.83
2023-05-12T04:41:43.198Z,156.38
2023-05-12T04:42:43.202Z,158.96
2023-05-12T04:44:43.206Z,158.12
2023-05-12T04:45:43.260Z,158.03
2023-05-12T04:46:43.190Z,157.30
2023-05-12T04:47:43.202Z,157.28
2023-05-12T04:48:43.186Z,158.22
2023-05-12T04:49:43.178Z,156.54
2023-05-12T04:50:43.162Z,155.34
2023-05-12T04:51:43.143Z,157.37
2023-05-12T04:52:43.168Z,159.18
2023-05-12T04:53:43.130Z,158.26
2023-05-12T04:54:43.117Z,156.69
2023-05-12T04:55:43.123Z,157.06
2023-05-12T04:56:43.128Z,157.67
2023-05-12T04:57:43.128Z,156.67
2023-05-12T04:58:43.123Z,154.89
2023-05-12T04:59:43.095Z,153.89
2023-05-12T05:00:43.091Z,158.05
2023-05-12T05:01:43.119Z,155.65
2023-05-12T05:02:43.201Z,154.51
2023-05-12T05:03:43.161Z,155.57
2023-05-12T05:04:43.065Z,155.12
2023-05-12T05:05:43.052Z,155.60
2023-05-12T05:06:43.041Z,156.03
2023-05-12T05:07:43.040Z,156.17
2023-05-12T05:08:43.016Z,156.93
2023-05-12T05:09:43.041Z,157.05
2023-05-12T05:10:43.003Z,154.96
2023-05-12T05:11:43.017Z,154.11
2023-05-12T05:12:43.005Z,156.59
2023-05-12T05:13:43.010Z,156.02
2023-05-12T05:14:43.006Z,152.19
2023-05-12T05:15:43.068Z,153.05
2023-05-12T05:16:42.982Z,153.80
2023-05-12T05:17:43.015Z,152.97
2023-05-12T05:18:42.979Z,154.31
2023-05-12T05:19:55.122Z,154.57
2023-05-12T05:20:45.616Z,154.88
2023-05-12T05:21:43.940Z,154.97
2023-05-12T05:22:42.923Z,155.75
2023-05-12T05:23:42.974Z,154.84
2023-05-12T05:24:42.935Z,155.51
2023-05-12T05:25:42.906Z,155.45
2023-05-12T05:26:42.895Z,153.80
2023-05-12T05:27:42.930Z,154.59
2023-05-12T05:28:42.940Z,154.23
2023-05-12T05:29:42.976Z,153.50
2023-05-12T05:30:42.870Z,154.32
2023-05-12T05:31:42.985Z,153.83
2023-05-12T05:32:43.136Z,142.53
2023-05-12T05:33:42.870Z,116.29
2023-05-12T05:34:42.912Z,111.13
2023-05-12T05:35:42.861Z,96.86
2023-05-12T05:36:42.861Z,89.38
2023-05-12T05:37:42.859Z,94.92
2023-05-12T05:38:42.819Z,74.91
2023-05-12T05:39:42.864Z,69.47
2023-05-12T05:40:52.955Z,63.24
2023-05-12T05:41:43.822Z,63.49
2023-05-12T05:42:42.799Z,63.26
2023-05-12T05:43:42.815Z,62.81
2023-05-12T05:44:42.809Z,61.17
2023-05-12T05:45:42.779Z,65.65
2023-05-12T05:46:42.877Z,65.65
2023-05-12T05:47:42.850Z,68.74
2023-05-12T05:48:42.758Z,69.57
2023-05-12T05:49:42.766Z,71.45
2023-05-12T05:50:42.738Z,76.52
2023-05-12T05:51:42.762Z,74.60
2023-05-12T05:52:42.737Z,74.71
2023-05-12T05:53:42.735Z,78.28
2023-05-12T05:54:42.816Z,80.13
2023-05-12T05:55:42.853Z,80.01
2023-05-12T05:56:42.913Z,79.01
2023-05-12T05:57:42.978Z,78.82
2023-05-12T05:58:43.032Z,82.52
2023-05-12T05:59:43.123Z,78.11
2023-05-12T06:00:43.130Z,79.55
2023-05-12T06:01:43.235Z,80.20
2023-05-12T06:02:43.379Z,79.67
2023-05-12T06:03:43.434Z,80.26
2023-05-12T06:04:43.320Z,78.14
2023-05-12T06:05:43.419Z,80.53
2023-05-12T06:06:43.387Z,81.17
2023-05-12T06:07:43.410Z,80.47
2023-05-12T06:08:43.441Z,80.59
2023-05-12T06:09:43.493Z,82.12
2023-05-12T06:10:43.505Z,81.03
2023-05-12T06:11:43.547Z,79.69
2023-05-12T06:12:43.630Z,82.18
2023-05-12T06:13:43.612Z,79.22
2023-05-12T06:14:43.698Z,79.72
2023-05-12T06:15:43.733Z,78.29
2023-05-12T06:16:43.841Z,80.01
2023-05-12T06:17:43.908Z,78.99
2023-05-12T06:18:43.947Z,83.33
2023-05-12T06:19:43.908Z,80.00
2023-05-12T06:20:43.952Z,80.61
2023-05-12T06:21:44.013Z,79.75
2023-05-12T06:22:44.041Z,79.44
2023-05-12T06:23:44.075Z,81.36
2023-05-12T06:24:44.116Z,80.22
2023-05-12T06:25:44.136Z,78.86
2023-05-12T06:26:44.211Z,78.28
2023-05-12T06:27:44.228Z,80.06
2023-05-12T06:28:44.250Z,78.64
2023-05-12T06:29:44.282Z,76.10
2023-05-12T06:30:44.354Z,77.11
2023-05-12T06:31:44.333Z,77.57
2023-05-12T06:32:44.398Z,79.78
2023-05-12T06:33:44.400Z,75.27
2023-05-12T06:34:44.397Z,74.91
2023-05-12T06:35:44.457Z,74.93
2023-05-12T06:36:44.425Z,76.67
2023-05-12T06:37:44.445Z,76.26
2023-05-12T06:38:44.465Z,74.22
2023-05-12T06:39:44.544Z,79.15
2023-05-12T06:40:44.554Z,76.08
2023-05-12T06:41:45.122Z,78.56
2023-05-12T06:42:44.661Z,78.00
2023-05-12T06:43:44.624Z,77.08
2023-05-12T06:44:44.629Z,78.37
2023-05-12T06:45:44.673Z,73.94
2023-05-12T06:46:44.680Z,72.94
2023-05-12T06:47:44.709Z,75.27
2023-05-12T06:48:44.669Z,74.35
2023-05-12T06:49:44.702Z,74.87
2023-05-12T06:50:44.732Z,74.63
2023-05-12T06:51:44.769Z,75.07
2023-05-12T06:52:45.885Z,73.78
2023-05-12T06:53:44.898Z,73.64
2023-05-12T06:54:44.917Z,73.29
2023-05-12T06:55:45.016Z,73.70
2023-05-12T06:56:45.131Z,72.24
2023-05-12T06:57:45.035Z,71.06
2023-05-12T06:58:45.055Z,73.59
2023-05-12T06:59:45.186Z,72.86
2023-05-12T07:00:45.170Z,73.71
2023-05-12T07:01:45.284Z,73.27
2023-05-12T07:02:45.348Z,72.26
2023-05-12T07:03:45.428Z,75.06
2023-05-12T07:04:45.487Z,73.22
2023-05-12T07:05:45.483Z,72.91
2023-05-12T07:06:45.497Z,69.86
2023-05-12T07:07:45.559Z,69.76
2023-05-12T07:08:45.613Z,71.22
2023-05-12T07:09:45.720Z,70.43
2023-05-12T07:10:45.739Z,72.07
2023-05-12T07:11:45.812Z,69.00
2023-05-12T07:12:45.919Z,69.83
2023-05-12T07:13:45.901Z,72.13
2023-05-12T07:14:45.932Z,67.92
2023-05-12T07:15:46.019Z,68.99
2023-05-12T07:16:46.035Z,69.55
2023-05-12T07:17:46.146Z,68.83
2023-05-12T07:18:46.238Z,67.43
2023-05-12T07:19:46.176Z,68.15
2023-05-12T07:20:46.258Z,66.75
2023-05-12T07:21:46.270Z,67.89
2023-05-12T07:22:46.293Z,66.79
2023-05-12T07:23:46.314Z,65.27
2023-05-12T07:24:46.361Z,66.44
2023-05-12T07:25:46.420Z,68.83
2023-05-12T11:17:42.292Z,25.00
2023-05-12T11:18:42.281Z,25.00
2023-05-12T11:19:42.176Z,25.00
2023-05-12T11:20:42.132Z,25.00
2023-05-12T11:21:42.140Z,25.00
2023-05-12T11:22:42.137Z,0.00
2023-05-12T11:23:42.097Z,0.00
2023-05-12T11:24:42.092Z,0.00
2023-05-12T11:25:44.153Z,0.00
2023-05-12T11:26:42.105Z,0.00
2023-05-12T11:27:42.065Z,0.00
2023-05-12T11:28:42.115Z,0.00
2023-05-12T11:29:42.084Z,0.00
2023-05-12T11:30:42.114Z,0.00
2023-05-12T11:31:42.162Z,0.00
2023-05-12T11:32:42.168Z,0.00
2023-05-12T11:33:42.190Z,0.00
2023-05-12T11:34:42.186Z,0.00
2023-05-12T11:35:42.166Z,0.00
2023-05-12T11:36:42.220Z,13.68
2023-05-12T11:37:42.158Z,25.00
2023-05-12T11:38:42.151Z,25.01
2023-05-12T11:39:42.176Z,25.66
2023-05-12T11:40:42.176Z,25.44
2023-05-12T11:41:42.211Z,25.00
2023-05-12T11:42:42.240Z,25.00
2023-05-12T11:43:42.283Z,25.00
2023-05-12T11:44:42.316Z,25.88
2023-05-12T11:45:42.416Z,25.00
2023-05-12T11:46:42.401Z,26.09
2023-05-12T11:47:42.432Z,25.65
2023-05-12T11:48:42.454Z,25.00
2023-05-12T11:49:42.504Z,27.01
2023-05-12T11:50:42.543Z,25.00
2023-05-12T11:51:42.560Z,26.12
2023-05-12T11:52:42.587Z,26.48
2023-05-12T11:53:42.643Z,26.46
2023-05-12T11:54:42.653Z,25.66
2023-05-12T11:55:42.678Z,26.19
2023-05-12T11:56:42.709Z,26.84
2023-05-12T11:57:42.715Z,26.04
2023-05-12T11:58:42.741Z,27.00
2023-05-12T11:59:42.762Z,25.08
2023-05-12T12:00:42.818Z,25.53
2023-05-12T12:01:42.847Z,25.00
2023-05-12T12:02:42.910Z,25.00
2023-05-12T12:03:43.001Z,27.88
2023-05-12T12:04:43.271Z,26.39
2023-05-12T12:05:43.025Z,27.84
2023-05-12T12:06:43.093Z,27.06
2023-05-12T12:07:43.119Z,26.69
2023-05-12T12:08:43.155Z,26.33
2023-05-12T12:09:43.182Z,25.19
2023-05-12T12:10:43.224Z,26.87
2023-05-12T12:11:43.288Z,26.09
2023-05-12T12:12:43.331Z,25.80
2023-05-12T12:13:43.331Z,25.73
2023-05-12T12:14:43.774Z,27.29
2023-05-12T12:15:43.414Z,27.13
2023-05-12T12:16:43.424Z,25.00
2023-05-12T12:17:43.468Z,27.72
2023-05-12T12:18:43.495Z,25.00
2023-05-12T12:19:43.475Z,27.25
2023-05-12T12:20:43.479Z,25.68
2023-05-12T12:21:43.557Z,25.99
2023-05-12T12:22:43.546Z,25.57
2023-05-12T12:23:50.825Z,25.69
2023-05-12T12:24:44.594Z,25.89
2023-05-12T12:25:43.583Z,26.25
2023-05-12T12:26:43.567Z,25.85
2023-05-12T12:27:43.558Z,24.15
2023-05-12T12:28:43.550Z,21.96
2023-05-12T12:29:43.534Z,27.91
2023-05-12T12:30:43.538Z,27.88
2023-05-12T12:31:43.612Z,25.23
2023-05-12T12:32:43.547Z,25.04
2023-05-12T12:33:43.551Z,25.69
2023-05-12T12:34:43.559Z,27.34
2023-05-12T12:35:43.584Z,25.93
2023-05-12T12:36:43.593Z,26.41
2023-05-12T12:37:43.622Z,26.41
2023-05-12T12:38:43.665Z,25.97
2023-05-12T12:39:43.700Z,27.68
2023-05-12T12:40:43.685Z,26.19
2023-05-12T12:41:43.714Z,26.39
2023-05-12T12:42:43.749Z,27.62
2023-05-12T12:43:43.778Z,25.90
2023-05-12T12:44:43.850Z,26.34
2023-05-12T12:45:43.804Z,26.01
2023-05-12T12:46:43.924Z,25.83
2023-05-12T12:47:43.877Z,25.41
2023-05-12T12:48:43.868Z,28.02
2023-05-12T12:49:43.945Z,27.18
2023-05-12T12:50:43.957Z,29.19
2023-05-12T12:51:46.668Z,28.32
2023-05-12T12:52:43.934Z,29.30
2023-05-12T12:53:43.959Z,29.64
2023-05-12T12:54:43.957Z,31.21
2023-05-12T12:55:43.908Z,28.37
2023-05-12T12:56:43.907Z,29.11
2023-05-12T12:57:43.898Z,28.74
2023-05-12T12:58:43.888Z,28.50
2023-05-12T12:59:43.917Z,27.71
2023-05-12T13:00:43.898Z,25.57
2023-05-12T13:01:43.998Z,26.08
2023-05-12T13:02:43.957Z,26.43
2023-05-12T13:03:43.841Z,25.65
2023-05-12T13:04:43.830Z,26.22
2023-05-12T13:05:43.832Z,26.45
2023-05-12T13:06:43.831Z,27.82
2023-05-12T13:07:43.808Z,26.37
2023-05-12T13:08:43.837Z,27.84
2023-05-12T13:09:43.844Z,26.36
2023-05-12T13:10:43.806Z,26.70
2023-05-12T13:11:43.782Z,27.38
2023-05-12T13:12:43.775Z,28.50
2023-05-12T13:13:43.774Z,29.96
2023-05-12T13:14:43.796Z,28.20
2023-05-12T13:15:43.748Z,28.25
2023-05-12T13:16:43.785Z,27.15
2023-05-12T13:17:43.779Z,28.48
2023-05-12T13:18:43.846Z,26.48
2023-05-12T13:19:43.785Z,26.82
2023-05-12T13:20:43.714Z,26.71
2023-05-12T13:21:43.737Z,27.40
2023-05-12T13:22:43.726Z,25.77
2023-05-12T13:23:43.708Z,25.00
2023-05-12T13:24:43.733Z,28.54
2023-05-12T13:25:43.702Z,25.37
2023-05-12T13:26:43.681Z,27.73
2023-05-12T13:27:43.668Z,26.15
2023-05-12T13:28:43.651Z,27.32
2023-05-12T13:29:43.697Z,28.84
2023-05-12T13:30:43.665Z,25.50
2023-05-12T13:31:43.632Z,27.11
2023-05-12T13:32:43.644Z,29.03
2023-05-12T13:33:43.634Z,27.59
2023-05-12T13:34:43.612Z,27.57
2023-05-12T13:35:43.608Z,27.65
2023-05-12T13:36:43.618Z,26.45
2023-05-12T13:37:43.628Z,25.96
2023-05-12T13:38:43.593Z,27.83
2023-05-12T13:39:43.574Z,28.97
2023-05-12T13:40:43.579Z,29.97
2023-05-12T13:41:43.620Z,28.11
2023-05-12T13:42:43.555Z,28.03
2023-05-12T13:43:43.545Z,26.62
2023-05-12T13:44:43.548Z,26.07
2023-05-12T13:45:43.539Z,27.60
2023-05-12T13:46:43.622Z,25.00
2023-05-12T13:47:43.541Z,27.17
2023-05-12T13:48:44.386Z,26.83
2023-05-12T13:49:43.518Z,30.35
2023-05-12T13:50:43.531Z,28.12
2023-05-12T13:51:43.500Z,27.63
2023-05-12T13:52:43.490Z,28.88
2023-05-12T13:53:43.488Z,27.90
2023-05-12T13:54:43.472Z,28.88
2023-05-12T13:55:43.459Z,28.90
2023-05-12T13:56:43.455Z,29.84
2023-05-12T13:57:43.597Z,25.18
2023-05-12T13:58:43.479Z,30.06
2023-05-12T13:59:43.453Z,28.80
2023-05-12T14:00:43.477Z,30.04
2023-05-12T14:01:43.540Z,26.26
2023-05-12T14:02:43.554Z,28.14
2023-05-12T14:03:43.569Z,28.26
2023-05-12T14:04:43.598Z,28.11
2023-05-12T14:05:43.646Z,27.31
2023-05-12T14:06:43.648Z,27.88
2023-05-12T14:07:43.676Z,26.67
2023-05-12T14:08:43.730Z,25.83
2023-05-12T14:09:43.753Z,25.39
2023-05-12T14:10:43.790Z,26.11
2023-05-12T14:11:43.819Z,27.10
2023-05-12T14:12:43.846Z,25.79
2023-05-12T14:13:43.869Z,29.16
2023-05-12T14:14:43.910Z,29.00
2023-05-12T14:15:49.336Z,26.14
2023-05-12T14:16:44.995Z,26.42
2023-05-12T14:17:44.028Z,26.84
2023-05-12T14:18:44.095Z,27.23
2023-05-12T14:19:43.905Z,27.20
2023-05-12T14:20:43.896Z,25.34
2023-05-12T14:21:43.906Z,28.87
2023-05-12T14:22:43.889Z,27.27
2023-05-12T14:23:43.885Z,27.22
2023-05-12T14:24:43.868Z,26.88
2023-05-12T14:25:43.879Z,25.13
2023-05-12T14:26:43.867Z,26.70
2023-05-12T14:27:43.846Z,28.23
2023-05-12T14:28:43.894Z,28.39
2023-05-12T14:29:43.881Z,28.00
2023-05-12T14:30:43.928Z,28.51
2023-05-12T14:31:43.906Z,25.34
2023-05-12T14:32:43.910Z,29.08
2023-05-12T14:33:43.918Z,26.53
2023-05-12T14:34:43.949Z,29.00
2023-05-12T14:35:52.832Z,30.56
2023-05-12T14:36:44.954Z,30.73
2023-05-12T14:37:43.927Z,30.62
2023-05-12T14:38:43.925Z,27.83
2023-05-12T14:39:43.952Z,28.67
2023-05-12T14:40:43.916Z,29.62
2023-05-12T14:41:43.901Z,29.97
2023-05-12T14:42:43.896Z,29.12
2023-05-12T14:43:43.897Z,27.45
2023-05-12T14:44:43.879Z,26.91
2023-05-12T14:45:43.895Z,25.90
2023-05-12T14:46:43.892Z,26.30
2023-05-12T14:47:43.945Z,27.16
2023-05-12T14:48:43.870Z,29.86
2023-05-12T14:49:45.590Z,27.24
2023-05-12T14:50:43.853Z,28.87
2023-05-12T14:51:43.848Z,28.11
2023-05-12T14:52:43.850Z,26.58
2023-05-12T14:53:43.833Z,25.11
2023-05-12T14:54:43.852Z,27.76
2023-05-12T14:55:43.854Z,27.46
2023-05-12T14:56:43.868Z,25.00
2023-05-12T14:57:43.869Z,26.82
2023-05-12T14:58:43.896Z,27.43
2023-05-12T14:59:43.935Z,28.35
2023-05-12T15:00:43.954Z,25.44
2023-05-12T15:01:44.103Z,27.85
2023-05-12T15:02:44.054Z,26.88
2023-05-12T15:03:43.996Z,28.76
2023-05-12T15:04:43.981Z,28.91
2023-05-12T15:06:44.029Z,27.37
2023-05-12T15:07:44.034Z,27.49
2023-05-12T15:08:43.992Z,27.55
2023-05-12T15:09:43.980Z,27.24
2023-05-12T15:10:43.987Z,29.06
2023-05-12T15:11:43.969Z,27.52
2023-05-12T15:12:43.962Z,26.46
2023-05-12T15:13:43.957Z,27.05
2023-05-12T15:14:44.101Z,25.00
2023-05-12T15:15:43.956Z,27.25
2023-05-12T15:16:43.983Z,29.13
2023-05-12T15:17:43.964Z,27.92
2023-05-12T15:18:44.023Z,27.43
2023-05-12T15:19:43.919Z,26.53
2023-05-12T15:20:43.907Z,29.07
2023-05-12T15:21:43.907Z,27.88
2023-05-12T15:22:43.899Z,27.92
2023-05-12T15:23:43.920Z,26.59
2023-05-12T15:24:43.882Z,27.82
2023-05-12T15:25:43.892Z,26.39
2023-05-12T15:26:43.871Z,27.12
2023-05-12T15:27:43.868Z,25.47
2023-05-12T15:28:43.935Z,29.11
2023-05-12T15:29:43.915Z,28.04
2023-05-12T15:30:43.896Z,27.82
2023-05-12T15:31:43.986Z,27.33
2023-05-12T15:32:43.962Z,27.93
2023-05-12T15:33:43.908Z,28.97
2023-05-12T15:34:43.894Z,28.28
2023-05-12T15:35:43.803Z,27.84
2023-05-12T15:36:43.855Z,27.97
2023-05-12T15:37:43.795Z,30.13
2023-05-12T15:38:43.801Z,28.13
2023-05-12T15:39:43.770Z,27.49
2023-05-12T15:40:43.940Z,29.93
2023-05-12T15:41:43.826Z,27.20
2023-05-12T15:42:43.751Z,27.42
2023-05-12T15:43:43.734Z,26.20
2023-05-12T15:44:43.740Z,28.95
2023-05-12T15:45:43.753Z,27.15
2023-05-12T15:46:43.778Z,29.11
2023-05-12T15:47:43.745Z,29.69
2023-05-12T15:48:43.709Z,29.67
2023-05-12T15:49:43.710Z,27.57
2023-05-12T15:50:43.685Z,27.88
2023-05-12T15:51:43.688Z,29.15
2023-05-12T15:52:43.672Z,27.83
2023-05-12T15:53:43.677Z,28.71
2023-05-12T15:54:43.658Z,29.64
2023-05-12T15:55:43.662Z,29.84
2023-05-12T15:56:43.648Z,27.18
2023-05-12T15:57:43.653Z,25.28
2023-05-12T15:58:43.624Z,25.42
2023-05-12T15:59:43.624Z,27.47
2023-05-12T16:00:43.633Z,25.99
2023-05-12T16:01:43.659Z,27.94
2023-05-12T16:02:43.702Z,25.00
2023-05-12T16:03:43.697Z,29.27
2023-05-12T16:04:43.569Z,30.76
2023-05-12T16:05:43.565Z,30.87
2023-05-12T16:06:43.563Z,29.73
2023-05-12T16:07:43.565Z,26.06
2023-05-12T16:08:43.556Z,28.88
2023-05-12T16:09:43.549Z,29.16
2023-05-12T16:10:43.536Z,28.73
2023-05-12T16:11:43.523Z,27.32
2023-05-12T16:12:43.510Z,26.94
2023-05-12T16:13:43.515Z,27.27
2023-05-12T16:14:43.497Z,28.05
2023-05-12T16:15:43.548Z,29.89
2023-05-12T16:16:43.549Z,25.86
2023-05-12T16:17:43.625Z,27.91
2023-05-12T16:18:43.545Z,29.17
2023-05-12T16:19:43.465Z,29.84
2023-05-12T16:20:43.487Z,27.63
2023-05-12T16:21:43.453Z,29.52
2023-05-12T16:22:43.446Z,32.79
2023-05-12T16:23:43.432Z,28.39
2023-05-12T16:24:43.444Z,28.40
2023-05-12T16:25:43.422Z,27.63
2023-05-12T16:26:43.441Z,28.28
2023-05-12T16:27:43.399Z,27.28
2023-05-12T16:28:43.397Z,29.02
2023-05-12T16:29:43.389Z,28.85
2023-05-12T16:30:43.389Z,29.03
2023-05-12T16:31:43.384Z,28.45
2023-05-12T16:32:43.394Z,25.97
2023-05-12T16:33:43.357Z,27.86
2023-05-12T16:34:43.367Z,28.40
2023-05-12T16:35:43.344Z,26.80